createdAt,value
2022-11-29T00:01:25.447Z,18.37
2022-11-29T00:03:53.776Z,12.50
2022-11-29T00:06:24.650Z,16.37
2022-11-29T00:08:51.996Z,18.43
2022-11-29T00:11:42.080Z,14.90
2022-11-29T00:14:15.057Z,17.50
2022-11-29T00:16:43.132Z,13.90
2022-11-29T00:19:12.544Z,17.57
2022-11-29T00:21:40.158Z,12.57
2022-11-29T00:24:07.749Z,16.67
2022-11-29T00:26:37.037Z,15.90
2022-11-29T00:29:04.642Z,15.30
2022-11-29T00:31:33.615Z,16.45
2022-11-29T00:34:03.296Z,14.07
2022-11-29T00:36:30.836Z,16.08
2022-11-29T00:38:59.143Z,14.23
2022-11-29T00:41:26.618Z,14.67
2022-11-29T00:43:54.415Z,15.23
2022-11-29T00:46:22.043Z,16.80
2022-11-29T00:48:49.637Z,13.60
2022-11-29T00:51:17.044Z,16.60
2022-11-29T00:53:44.464Z,14.97
2022-11-29T00:56:12.119Z,16.42
2022-11-29T00:58:39.536Z,17.13
2022-11-29T01:01:06.971Z,17.48
2022-11-29T01:03:34.445Z,16.73
2022-11-29T01:06:08.128Z,17.50
2022-11-29T01:08:35.837Z,17.90
2022-11-29T01:11:15.686Z,15.63
2022-11-29T01:13:44.988Z,17.25
2022-11-29T01:16:13.412Z,18.80
2022-11-29T01:18:41.390Z,16.40
2022-11-29T01:21:12.558Z,20.47
2022-11-29T01:23:40.880Z,17.67
2022-11-29T01:26:32.968Z,20.33
2022-11-29T01:29:00.625Z,19.60
2022-11-29T01:31:31.231Z,16.17
2022-11-29T01:34:00.951Z,16.50
2022-11-29T01:36:28.788Z,20.83
2022-11-29T01:38:56.528Z,19.90
2022-11-29T01:41:26.612Z,18.38
2022-11-29T01:44:22.509Z,15.23
2022-11-29T01:46:49.948Z,17.60
2022-11-29T01:49:33.840Z,16.63
2022-11-29T01:52:08.776Z,19.73
2022-11-29T01:54:40.540Z,15.63
2022-11-29T01:57:09.920Z,18.80
2022-11-29T01:59:44.944Z,18.80
2022-11-29T02:02:22.173Z,19.20
2022-11-29T02:04:50.458Z,17.67
2022-11-29T02:07:17.864Z,18.60
2022-11-29T02:09:45.360Z,21.67
2022-11-29T02:12:31.695Z,19.50
2022-11-29T02:15:27.184Z,18.30
2022-11-29T02:18:06.726Z,21.40
2022-11-29T02:21:12.756Z,19.13
2022-11-29T02:24:22.656Z,14.80
2022-11-29T02:27:23.706Z,19.23
2022-11-29T02:30:29.141Z,18.67
2022-11-29T02:33:30.331Z,15.87
2022-11-29T03:03:12.699Z,23.37
2022-11-29T03:12:39.121Z,18.93
2022-11-29T03:15:36.989Z,19.17
2022-11-29T03:18:46.075Z,23.10
2022-11-29T03:21:19.581Z,20.10
2022-11-29T03:23:54.887Z,21.97
2022-11-29T03:26:35.446Z,18.27
2022-11-29T03:29:23.623Z,20.47
2022-11-29T03:32:07.310Z,21.70
2022-11-29T03:35:27.095Z,19.10
2022-11-29T03:38:15.222Z,21.90
2022-11-29T03:40:52.250Z,20.53
2022-11-29T03:43:36.871Z,21.03
2022-11-29T03:46:15.817Z,22.03
2022-11-29T03:48:49.755Z,19.77
2022-11-29T03:52:00.250Z,28.40
2022-11-29T03:54:43.250Z,21.60
2022-11-29T03:57:13.300Z,18.13
2022-11-29T04:00:06.794Z,25.00
2022-11-29T04:03:01.220Z,23.20
2022-11-29T04:05:46.691Z,20.93
2022-11-29T04:09:02.175Z,24.00
2022-11-29T04:11:59.070Z,23.90
2022-11-29T04:14:59.027Z,25.47
2022-11-29T04:18:08.313Z,22.33
2022-11-29T04:21:12.593Z,20.33
2022-11-29T04:24:12.343Z,19.87
2022-11-29T04:27:31.022Z,20.93
2022-11-29T04:30:04.207Z,21.67
2022-11-29T04:33:14.150Z,21.97
2022-11-29T04:36:25.448Z,22.83
2022-11-29T04:39:17.384Z,21.30
2022-11-29T04:42:20.101Z,23.30
2022-11-29T04:45:16.496Z,20.60
2022-11-29T04:48:04.484Z,20.13
2022-11-29T04:50:56.670Z,22.37
2022-11-29T04:54:18.147Z,20.58
2022-11-29T04:56:52.883Z,19.50
2022-11-29T04:59:49.472Z,20.53
2022-11-29T05:02:47.480Z,18.97
2022-11-29T05:05:48.535Z,16.13
2022-11-29T05:08:56.133Z,22.47
2022-11-29T05:11:36.741Z,19.60
2022-11-29T05:14:27.179Z,22.07
2022-11-29T05:17:25.878Z,21.60
2022-11-29T05:20:21.567Z,21.23
2022-11-29T05:23:26.583Z,25.13
2022-11-29T05:26:22.801Z,19.13
2022-11-29T05:29:08.717Z,21.03
2022-11-29T05:31:40.949Z,22.07
2022-11-29T05:35:05.400Z,21.30
2022-11-29T05:37:52.749Z,18.03
2022-11-29T05:41:03.500Z,19.17
2022-11-29T05:44:07.532Z,18.20
2022-11-29T05:46:56.837Z,25.63
2022-11-29T05:49:53.981Z,20.77
2022-11-29T05:52:43.869Z,21.17
2022-11-29T05:55:51.724Z,22.67
2022-11-29T06:02:18.083Z,16.70
2022-11-29T06:08:21.185Z,19.70
2022-11-29T06:11:05.965Z,16.40
2022-11-29T06:14:08.113Z,17.97
2022-11-29T06:17:18.762Z,19.60
2022-11-29T06:20:24.934Z,17.60
2022-11-29T06:30:04.277Z,22.50
2022-11-29T06:32:46.442Z,16.97
2022-11-29T06:35:40.027Z,17.05
2022-11-29T06:38:25.947Z,14.07
2022-11-29T06:41:00.104Z,17.13
2022-11-29T06:43:29.980Z,17.30
2022-11-29T06:46:22.945Z,19.10
2022-11-29T06:49:11.577Z,15.73
2022-11-29T06:52:16.346Z,21.47
2022-11-29T06:55:14.602Z,15.57
2022-11-29T06:58:02.028Z,16.97
2022-11-29T07:00:47.638Z,18.80
2022-11-29T07:03:27.627Z,17.23
2022-11-29T07:05:55.975Z,18.40
2022-11-29T07:08:24.542Z,17.00
2022-11-29T07:10:54.945Z,16.17
2022-11-29T07:13:22.893Z,21.03
2022-11-29T07:16:22.387Z,14.77
2022-11-29T07:19:19.021Z,18.50
2022-11-29T07:21:55.350Z,16.17
2022-11-29T07:25:02.302Z,17.53
2022-11-29T07:28:26.168Z,12.63
2022-11-29T07:31:43.081Z,17.23
2022-11-29T07:34:45.197Z,15.17
2022-11-29T07:37:54.577Z,19.23
2022-11-29T07:40:41.668Z,13.63
2022-11-29T07:43:41.823Z,17.93
2022-11-29T07:46:09.465Z,16.17
2022-11-29T07:48:36.945Z,15.20
2022-11-29T07:51:04.730Z,20.33
2022-11-29T07:53:33.230Z,15.20
2022-11-29T07:56:00.858Z,15.97
2022-11-29T07:58:28.670Z,19.90
2022-11-29T08:00:56.164Z,17.47
2022-11-29T08:03:23.763Z,16.57
2022-11-29T08:05:51.229Z,16.27
2022-11-29T08:08:18.926Z,18.93
2022-11-29T08:10:48.300Z,18.30
2022-11-29T08:13:16.013Z,18.70
2022-11-29T08:15:46.946Z,18.80
2022-11-29T08:18:15.919Z,14.03
2022-11-29T08:20:43.936Z,15.90
2022-11-29T08:23:13.449Z,15.73
2022-11-29T08:25:41.296Z,14.30
2022-11-29T08:28:09.557Z,20.03
2022-11-29T08:30:37.302Z,19.17
2022-11-29T08:33:04.805Z,16.37
2022-11-29T08:35:34.384Z,15.60
2022-11-29T08:38:02.059Z,13.13
2022-11-29T08:40:29.775Z,15.40
2022-11-29T08:43:00.286Z,16.13
2022-11-29T08:45:28.172Z,14.57
2022-11-29T08:47:55.784Z,14.23
2022-11-29T08:50:23.498Z,13.67
2022-11-29T08:53:10.057Z,14.40
2022-11-29T08:55:40.714Z,13.73
2022-11-29T08:58:11.704Z,13.63
2022-11-29T09:00:40.603Z,17.50
2022-11-29T09:03:27.031Z,15.57
2022-11-29T09:05:54.953Z,12.83
2022-11-29T09:08:22.661Z,11.87
2022-11-29T09:10:50.605Z,14.20
2022-11-29T09:13:18.352Z,12.60
2022-11-29T09:15:45.895Z,16.87
2022-11-29T09:18:13.420Z,14.13
2022-11-29T09:20:44.215Z,16.37
2022-11-29T09:23:13.246Z,11.60
2022-11-29T09:25:40.817Z,14.77
2022-11-29T09:28:08.744Z,15.17
2022-11-29T09:30:38.570Z,14.13
2022-11-29T09:33:06.686Z,13.33
2022-11-29T09:35:35.191Z,14.93
2022-11-29T09:38:02.702Z,13.30
2022-11-29T09:40:55.062Z,12.13
2022-11-29T09:44:11.665Z,14.20
2022-11-29T09:46:58.795Z,13.40
2022-11-29T09:50:04.005Z,15.47
2022-11-29T09:52:52.122Z,11.37
2022-11-29T09:56:03.048Z,13.73
2022-11-29T09:58:38.259Z,8.57
2022-11-29T10:01:10.312Z,9.80
2022-11-29T10:06:29.275Z,14.65
2022-11-29T10:09:32.223Z,12.10
2022-11-29T10:12:20.472Z,11.80
2022-11-29T10:15:02.329Z,10.50
2022-11-29T10:18:06.427Z,13.57
2022-11-29T10:20:43.492Z,8.80
2022-11-29T10:23:33.169Z,11.97
2022-11-29T10:26:00.688Z,10.17
2022-11-29T10:28:31.427Z,12.53
2022-11-29T10:31:08.609Z,11.13
2022-11-29T10:33:40.653Z,11.23
2022-11-29T10:36:41.802Z,12.02
2022-11-29T10:39:39.790Z,10.70
2022-11-29T10:42:36.274Z,12.32
2022-11-29T10:45:11.207Z,11.18
2022-11-29T10:47:38.945Z,11.70
2022-11-29T10:50:07.341Z,10.73
2022-11-29T10:53:06.080Z,11.57
2022-11-29T10:55:50.180Z,14.05
2022-11-29T10:58:29.025Z,13.10
2022-11-29T11:01:07.759Z,12.82
2022-11-29T11:03:39.747Z,13.38
2022-11-29T11:06:20.880Z,10.15
2022-11-29T11:09:31.756Z,13.05
2022-11-29T11:12:02.947Z,11.93
2022-11-29T11:14:34.624Z,11.63
2022-11-29T11:17:28.123Z,15.68
2022-11-29T11:20:18.841Z,14.95
2022-11-29T11:22:58.916Z,11.77
2022-11-29T11:25:30.364Z,11.95
2022-11-29T11:28:17.239Z,15.55
2022-11-29T11:30:52.104Z,12.80
2022-11-29T11:33:31.366Z,14.05
2022-11-29T11:36:22.449Z,12.23
2022-11-29T11:38:58.806Z,17.33
2022-11-29T11:41:54.109Z,12.35
2022-11-29T11:44:50.565Z,14.68
2022-11-29T11:47:29.861Z,13.82
2022-11-29T11:50:13.508Z,16.02
2022-11-29T11:52:50.636Z,13.38
2022-11-29T11:55:35.431Z,13.82
2022-11-29T11:58:18.484Z,13.40
2022-11-29T12:01:17.261Z,13.80
2022-11-29T12:03:51.000Z,11.65
2022-11-29T12:06:31.487Z,13.57
2022-11-29T12:09:30.296Z,13.68
2022-11-29T12:12:23.765Z,14.02
2022-11-29T12:15:22.221Z,13.43
2022-11-29T12:18:13.067Z,16.13
2022-11-29T12:21:13.257Z,13.32
2022-11-29T12:23:53.829Z,12.63
2022-11-29T12:26:58.275Z,11.73
2022-11-29T12:29:29.897Z,12.90
2022-11-29T12:32:29.244Z,19.70
2022-11-29T12:35:29.450Z,14.05
2022-11-29T12:38:33.972Z,13.30
2022-11-29T12:41:40.696Z,16.08
2022-11-29T12:44:20.383Z,17.60
2022-11-29T12:47:35.320Z,16.55
2022-11-29T12:50:31.457Z,17.38
2022-11-29T12:53:37.452Z,15.35
2022-11-29T12:56:40.474Z,18.25
2022-11-29T12:59:34.085Z,12.48
2022-11-29T13:02:49.146Z,11.85
2022-11-29T13:06:01.233Z,18.50
2022-11-29T13:09:12.584Z,12.52
2022-11-29T13:11:51.277Z,14.55
2022-11-29T13:14:43.386Z,14.10
2022-11-29T13:19:55.681Z,14.70
2022-11-29T13:22:46.032Z,12.95
2022-11-29T13:25:24.741Z,16.13
2022-11-29T13:27:59.060Z,16.42
2022-11-29T13:30:26.859Z,14.18
2022-11-29T13:33:25.472Z,11.27
2022-11-29T13:36:06.499Z,15.23
2022-11-29T13:38:46.003Z,14.05
2022-11-29T13:42:05.741Z,15.45
2022-11-29T13:44:55.636Z,19.35
2022-11-29T13:47:23.150Z,17.55
2022-11-29T13:49:58.785Z,12.10
2022-11-29T13:52:47.262Z,18.20
2022-11-29T13:55:28.957Z,14.02
2022-11-29T13:58:20.690Z,21.48
2022-11-29T14:00:51.852Z,17.08
2022-11-29T14:03:57.487Z,20.63
2022-11-29T14:06:37.298Z,14.88
2022-11-29T14:09:25.428Z,15.60
2022-11-29T14:12:16.951Z,16.98
2022-11-29T14:15:04.715Z,18.17
2022-11-29T14:18:08.218Z,20.63
2022-11-29T14:20:55.111Z,14.83
2022-11-29T14:23:43.017Z,19.42
2022-11-29T14:26:28.312Z,17.90
2022-11-29T14:28:56.818Z,20.83
2022-11-29T14:31:47.844Z,15.98
2022-11-29T14:34:21.940Z,18.58
2022-11-29T14:37:06.601Z,21.00
2022-11-29T14:39:47.067Z,15.90
2022-11-29T14:42:19.233Z,16.98
2022-11-29T14:47:37.177Z,21.25
2022-11-29T14:50:10.504Z,15.80
2022-11-29T14:52:51.207Z,17.30
2022-11-29T14:55:38.982Z,19.57
2022-11-29T14:58:17.971Z,15.37
2022-11-29T15:00:55.721Z,18.45
2022-11-29T15:03:33.972Z,17.00
2022-11-29T15:06:11.822Z,20.23
2022-11-29T15:08:50.243Z,17.45
2022-11-29T15:12:02.757Z,17.80
2022-11-29T15:15:11.164Z,14.48
2022-11-29T15:18:02.962Z,15.30
2022-11-29T15:21:18.015Z,14.73
2022-11-29T15:23:45.398Z,14.67
2022-11-29T15:26:21.262Z,17.17
2022-11-29T15:28:48.660Z,19.30
2022-11-29T15:31:20.284Z,17.25
2022-11-29T15:33:49.544Z,18.80
2022-11-29T15:36:22.529Z,19.33
2022-11-29T15:38:55.063Z,15.27
2022-11-29T15:41:33.922Z,15.53
2022-11-29T15:44:06.156Z,14.90
2022-11-29T15:46:35.629Z,21.10
2022-11-29T15:49:16.042Z,21.77
2022-11-29T15:51:45.364Z,16.23
2022-11-29T15:54:26.583Z,24.90
2022-11-29T15:57:00.867Z,19.53
2022-11-29T15:59:45.908Z,24.30
2022-11-29T16:02:26.074Z,21.37
2022-11-29T16:04:57.062Z,18.65
2022-11-29T16:07:25.978Z,18.00
2022-11-29T16:10:01.869Z,18.73
2022-11-29T16:12:29.416Z,17.03
2022-11-29T16:15:00.165Z,22.73
2022-11-29T16:17:33.757Z,18.30
2022-11-29T16:20:24.262Z,21.20
2022-11-29T16:23:11.808Z,17.27
2022-11-29T16:26:14.934Z,19.83
2022-11-29T16:28:45.210Z,19.53
2022-11-29T16:31:30.395Z,22.92
2022-11-29T16:34:05.828Z,25.93
2022-11-29T16:36:33.305Z,17.90
2022-11-29T16:39:16.711Z,20.03
2022-11-29T16:41:44.563Z,21.00
2022-11-29T16:45:00.282Z,21.40
2022-11-29T16:47:30.379Z,21.23
2022-11-29T16:50:24.885Z,20.97
2022-11-29T16:52:56.581Z,24.50
2022-11-29T16:55:24.765Z,20.37
2022-11-29T16:57:52.509Z,21.73
2022-11-29T17:00:29.737Z,19.87
2022-11-29T17:02:57.605Z,20.47
2022-11-29T17:05:25.370Z,21.23
2022-11-29T17:07:53.154Z,23.23
2022-11-29T17:10:23.930Z,20.17
2022-11-29T17:12:51.493Z,24.10
2022-11-29T17:15:18.923Z,22.80
2022-11-29T17:17:46.326Z,20.80
2022-11-29T17:20:14.192Z,23.20
2022-11-29T17:22:41.913Z,24.07
2022-11-29T17:25:10.124Z,20.47
2022-11-29T17:27:37.624Z,19.17
2022-11-29T17:30:07.200Z,28.60
2022-11-29T17:32:35.780Z,23.97
2022-11-29T17:35:03.955Z,23.67
2022-11-29T17:37:31.404Z,24.30
2022-11-29T17:39:58.814Z,20.33
2022-11-29T17:42:26.238Z,15.17
2022-11-29T17:44:53.632Z,24.07
2022-11-29T17:47:21.036Z,21.67
2022-11-29T17:49:48.710Z,17.90
2022-11-29T17:52:16.247Z,19.03
2022-11-29T17:54:44.211Z,22.20
2022-11-29T17:57:11.731Z,19.88
2022-11-29T17:59:39.391Z,20.40
2022-11-29T18:02:07.235Z,21.63
2022-11-29T18:04:35.215Z,20.53
2022-11-29T18:07:02.799Z,18.50
2022-11-29T18:09:30.190Z,21.90
2022-11-29T18:11:57.608Z,22.40
2022-11-29T18:14:28.375Z,20.50
2022-11-29T18:16:55.961Z,19.10
2022-11-29T18:19:23.685Z,21.27
2022-11-29T18:21:51.985Z,22.03
2022-11-29T18:24:19.699Z,17.83
2022-11-29T18:26:47.348Z,28.20
2022-11-29T18:29:14.990Z,26.08
2022-11-29T18:31:45.032Z,20.75
2022-11-29T18:34:14.228Z,19.57
2022-11-29T18:36:47.405Z,21.63
2022-11-29T18:39:17.367Z,24.60
2022-11-29T18:41:47.743Z,18.00
2022-11-29T18:44:17.611Z,22.50
2022-11-29T18:46:45.968Z,18.93
2022-11-29T18:49:16.041Z,19.27
2022-11-29T18:51:45.500Z,24.05
2022-11-29T18:54:14.903Z,23.57
2022-11-29T18:56:43.645Z,24.27
2022-11-29T18:59:14.747Z,23.02
2022-11-29T19:01:43.270Z,16.23
2022-11-29T19:04:14.014Z,17.50
2022-11-29T19:06:42.027Z,19.03
2022-11-29T19:09:15.416Z,20.60
2022-11-29T19:11:42.893Z,20.30
2022-11-29T19:14:12.016Z,20.60
2022-11-29T19:16:42.159Z,19.77
2022-11-29T19:19:09.992Z,24.20
2022-11-29T19:21:39.727Z,19.27
2022-11-29T19:24:14.034Z,22.42
2022-11-29T19:26:44.477Z,17.15
2022-11-29T19:29:13.843Z,21.40
2022-11-29T19:31:42.517Z,18.20
2022-11-29T19:34:11.081Z,23.23
2022-11-29T19:36:43.108Z,18.02
2022-11-29T19:39:12.982Z,27.95
2022-11-29T19:41:42.877Z,23.60
2022-11-29T19:44:10.948Z,20.53
2022-11-29T19:46:44.239Z,23.53
2022-11-29T19:49:12.733Z,21.60
2022-11-29T19:51:40.676Z,23.13
2022-11-29T19:54:09.645Z,22.77
2022-11-29T19:56:38.140Z,22.97
2022-11-29T19:59:06.747Z,24.80
2022-11-29T20:01:40.728Z,23.63
2022-11-29T20:04:10.098Z,31.03
2022-11-29T20:06:37.953Z,22.63
2022-11-29T20:09:06.489Z,25.80
2022-11-29T20:11:33.910Z,26.70
2022-11-29T20:14:03.170Z,21.50
2022-11-29T20:16:31.530Z,24.05
2022-11-29T20:18:59.446Z,20.13
2022-11-29T20:21:29.516Z,20.67
2022-11-29T20:24:05.744Z,24.08
2022-11-29T20:26:35.992Z,25.98
2022-11-29T20:29:04.908Z,20.67
2022-11-29T20:31:34.155Z,20.35
2022-11-29T20:34:01.913Z,22.92
2022-11-29T20:37:08.490Z,26.07
2022-11-29T20:40:02.088Z,23.07
2022-11-29T20:42:29.632Z,20.43
2022-11-29T20:44:59.417Z,21.10
2022-11-29T20:47:31.596Z,21.90
2022-11-29T20:52:45.615Z,24.80
2022-11-29T20:55:13.091Z,20.03
2022-11-29T20:57:40.599Z,24.97
2022-11-29T21:00:11.727Z,25.10
2022-11-29T21:02:39.482Z,24.80
2022-11-29T21:05:07.636Z,21.83
2022-11-29T21:07:35.327Z,24.57
2022-11-29T21:10:04.541Z,22.47
2022-11-29T21:12:32.544Z,25.27
2022-11-29T21:15:00.316Z,22.73
2022-11-29T21:17:33.457Z,18.17
2022-11-29T21:20:01.897Z,22.67
2022-11-29T21:22:53.978Z,21.10
2022-11-29T21:25:44.270Z,23.85
2022-11-29T21:28:14.353Z,25.63
2022-11-29T21:30:42.579Z,22.13
2022-11-29T21:33:10.648Z,22.77
2022-11-29T21:35:40.075Z,21.10
2022-11-29T21:38:13.384Z,18.40
2022-11-29T21:40:40.808Z,21.10
2022-11-29T21:43:08.204Z,18.10
2022-11-29T21:45:35.750Z,24.73
2022-11-29T21:48:03.147Z,23.07
2022-11-29T21:50:30.484Z,19.83
2022-11-29T21:52:57.875Z,18.57
2022-11-29T21:55:31.568Z,17.17
2022-11-29T21:57:59.558Z,19.47
2022-11-29T22:00:26.884Z,20.50
2022-11-29T22:02:56.414Z,18.20
2022-11-29T22:05:23.994Z,20.77
2022-11-29T22:07:55.661Z,19.07
2022-11-29T22:10:23.279Z,21.52
2022-11-29T22:12:52.565Z,21.40
2022-11-29T22:15:24.630Z,20.53
2022-11-29T22:17:53.594Z,20.73
2022-11-29T22:20:21.089Z,21.63
2022-11-29T22:22:48.911Z,19.43
2022-11-29T22:25:16.629Z,18.53
2022-11-29T22:27:43.960Z,20.27
2022-11-29T22:30:12.089Z,21.67
2022-11-29T22:32:39.427Z,21.57
2022-11-29T22:35:07.420Z,21.77
2022-11-29T22:37:34.784Z,18.00
2022-11-29T22:40:02.265Z,17.43
2022-11-29T22:42:29.673Z,19.07
2022-11-29T22:44:57.081Z,17.67
2022-11-29T22:47:24.503Z,24.00
2022-11-29T22:49:51.875Z,20.10
2022-11-29T22:52:19.291Z,19.07
2022-11-29T22:54:46.939Z,22.63
2022-11-29T22:57:14.526Z,19.13
2022-11-29T22:59:41.894Z,18.97
2022-11-29T23:02:09.282Z,15.10
2022-11-29T23:04:36.728Z,20.73
2022-11-29T23:07:04.267Z,20.53
2022-11-29T23:09:31.629Z,17.63
2022-11-29T23:11:58.970Z,16.00
2022-11-29T23:14:26.508Z,18.57
2022-11-29T23:16:53.952Z,16.70
2022-11-29T23:19:21.388Z,15.00
2022-11-29T23:21:49.081Z,21.17
2022-11-29T23:24:16.798Z,21.93
2022-11-29T23:26:46.318Z,16.97
2022-11-29T23:29:16.658Z,19.77
2022-11-29T23:31:44.678Z,16.80
2022-11-29T23:34:13.075Z,21.00
2022-11-29T23:36:40.438Z,18.90
2022-11-29T23:39:07.839Z,18.20
2022-11-29T23:41:36.593Z,18.87
2022-11-29T23:44:08.678Z,23.23
2022-11-29T23:49:03.680Z,15.77
2022-11-29T23:51:31.141Z,16.67
2022-11-29T23:53:58.754Z,19.10
2022-11-29T23:56:26.110Z,19.97
2022-11-29T23:58:53.428Z,17.50
